Time;durP1;ratioP1;P1;durP2;ratioP2;P2;SDS_P1;SDS_P2;PMS_P1;PMS_P2;Temp;Humidity;BMP_temperature;BMP_pressure;BME280_temperature;BME280_humidity;BME280_pressure;Samples;Min_cycle;Max_cycle;Signal;HPM_P1;HPM_P2
2021/12/14 00:01:53;;;;;;;9.32;5.03;;;;;;;-0.84;98.46;101718.69;5057969;28;20044;-71
2021/12/14 00:04:31;;;;;;;10.95;5.53;;;;;;;-0.86;98.80;101718.88;5069197;28;20040;-71
2021/12/14 00:06:59;;;;;;;11.98;6.45;;;;;;;-0.85;98.39;101725.13;5057151;28;20147;-71
2021/12/14 00:09:31;;;;;;;10.20;4.85;;;;;;;-0.86;98.69;101718.06;5042765;28;20515;-72
2021/12/14 00:17:19;;;;;;;13.80;6.13;;;;;;;-0.90;98.35;101696.00;5047894;28;20120;-71
2021/12/14 00:19:46;;;;;;;11.05;5.03;;;;;;;-0.92;98.44;101698.03;5058155;28;20182;-71
2021/12/14 00:22:37;;;;;;;10.07;4.90;;;;;;;-0.93;98.76;101697.19;5055159;28;20037;-71
2021/12/14 00:25:05;;;;;;;8.60;4.70;;;;;;;-0.92;98.50;101693.47;5051155;28;20135;-71
2021/12/14 00:27:32;;;;;;;10.98;4.93;;;;;;;-0.93;98.56;101689.09;5051320;28;20720;-71
2021/12/14 00:29:59;;;;;;;6.82;3.30;;;;;;;-0.95;98.52;101688.44;5060353;28;20491;-71
2021/12/14 00:32:28;;;;;;;9.15;4.35;;;;;;;-0.95;98.48;101693.00;5031439;28;20041;-71
2021/12/14 00:34:58;;;;;;;9.88;5.10;;;;;;;-0.95;98.46;101695.69;5028700;28;20040;-71
2021/12/14 00:37:28;;;;;;;12.07;5.10;;;;;;;-0.96;98.44;101702.09;5047346;28;20118;-71
2021/12/14 00:39:54;;;;;;;;;;;;;;;-0.98;98.29;101704.16;5063130;28;20032;-71
2021/12/14 00:42:20;;;;;;;6.88;4.25;;;;;;;-0.99;98.42;101700.63;5026060;28;19924;-71
2021/12/14 00:44:47;;;;;;;9.10;5.13;;;;;;;-1.01;98.40;101701.81;5063835;28;20136;-71
2021/12/14 00:47:13;;;;;;;10.80;5.55;;;;;;;-1.01;98.14;101705.34;5062230;28;20083;-71
2021/12/14 00:49:39;;;;;;;10.63;4.50;;;;;;;-1.02;98.10;101709.06;5055127;28;20057;-72
2021/12/14 00:52:06;;;;;;;10.32;4.95;;;;;;;-1.01;98.12;101710.75;5059449;28;20454;-71
2021/12/14 00:54:32;;;;;;;9.13;4.47;;;;;;;-0.99;98.26;101714.09;5052774;28;20041;-71
2021/12/14 00:56:58;;;;;;;8.60;4.35;;;;;;;-0.99;97.88;101707.84;5050901;28;20041;-71
2021/12/14 00:59:24;;;;;;;11.68;5.63;;;;;;;-1.00;97.90;101712.41;5029999;28;20052;-71
2021/12/14 01:01:54;;;;;;;9.05;4.88;;;;;;;-1.00;97.85;101707.03;5052366;28;20044;-71
2021/12/14 01:04:29;;;;;;;10.63;5.30;;;;;;;-1.01;97.88;101712.59;5069267;28;20415;-71
2021/12/14 01:06:55;;;;;;;7.22;4.30;;;;;;;-1.05;97.87;101717.47;5060324;28;20406;-71
2021/12/14 01:09:26;;;;;;;8.88;5.05;;;;;;;-1.06;97.90;101713.09;5031123;28;20037;-71
2021/12/14 01:11:53;;;;;;;10.63;5.53;;;;;;;-1.06;97.64;101729.25;5065915;28;20526;-71
2021/12/14 01:14:29;;;;;;;5.78;2.95;;;;;;;-1.07;97.65;101732.97;5062732;28;20132;-71
2021/12/14 01:17:11;;;;;;;11.88;5.18;;;;;;;-1.08;97.65;101731.31;5040957;28;20076;-72
2021/12/14 01:19:42;;;;;;;6.95;4.57;;;;;;;-1.09;97.61;101723.41;5031263;28;20029;-71
2021/12/14 01:22:18;;;;;;;11.95;4.82;;;;;;;-1.09;97.59;101713.47;5069548;28;20658;-71
2021/12/14 01:27:34;;;;;;;10.77;5.60;;;;;;;-1.13;97.57;101717.53;5054611;28;20048;-71
2021/12/14 01:30:13;;;;;;;10.15;5.50;;;;;;;-1.17;97.53;101715.38;5049068;28;20028;-71
2021/12/14 01:32:44;;;;;;;10.38;5.05;;;;;;;-1.20;97.56;101708.50;5056112;28;20103;-71
2021/12/14 01:35:13;;;;;;;8.95;5.05;;;;;;;-1.17;97.43;101707.31;5042219;28;20034;-71
2021/12/14 01:37:46;;;;;;;8.80;4.88;;;;;;;-1.18;97.32;101711.03;5013689;28;20037;-71
2021/12/14 01:40:29;;;;;;;9.73;4.47;;;;;;;-1.19;97.66;101709.34;5053051;28;20032;-72
2021/12/14 01:42:56;;;;;;;9.10;4.85;;;;;;;-1.21;97.43;101704.13;5025321;28;20041;-71
2021/12/14 01:45:23;;;;;;;7.90;4.35;;;;;;;-1.24;97.63;101699.09;5035293;28;20042;-71
2021/12/14 01:47:56;;;;;;;8.80;4.90;;;;;;;-1.24;97.43;101691.00;5046818;28;20462;-71
2021/12/14 01:50:53;;;;;;;6.40;3.78;;;;;;;-1.29;97.35;101699.63;5054377;28;20595;-71
2021/12/14 01:53:40;;;;;;;9.20;4.70;;;;;;;-1.29;97.47;101690.72;5065203;28;20430;-71
2021/12/14 01:56:09;;;;;;;6.13;3.90;;;;;;;-1.28;97.32;101692.38;5037495;28;20036;-71
2021/12/14 01:58:42;;;;;;;8.95;4.15;;;;;;;-1.32;97.30;101693.75;5045262;28;20499;-71
2021/12/14 02:01:19;;;;;;;9.68;4.32;;;;;;;-1.32;97.37;101701.84;5040118;28;20040;-71
2021/12/14 02:04:13;;;;;;;7.90;4.55;;;;;;;-1.35;97.25;101707.59;5065135;28;20037;-71
2021/12/14 02:06:39;;;;;;;8.82;4.60;;;;;;;-1.36;97.01;101701.38;5030627;28;20515;-71
2021/12/14 02:09:14;;;;;;;9.48;4.35;;;;;;;-1.34;97.12;101699.31;5035611;28;20136;-71
2021/12/14 02:11:47;;;;;;;7.95;4.57;;;;;;;-1.31;97.13;101695.44;5062442;28;20518;-71
2021/12/14 02:14:16;;;;;;;8.65;4.55;;;;;;;-1.28;97.19;101698.59;5044216;28;20041;-71
2021/12/14 02:16:43;;;;;;;8.68;4.47;;;;;;;-1.30;97.17;101700.63;5034997;28;20029;-71
2021/12/14 02:19:14;;;;;;;8.70;4.00;;;;;;;-1.29;97.26;101688.84;5036790;28;20050;-71
2021/12/14 02:21:41;;;;;;;8.63;4.88;;;;;;;-1.29;97.68;101688.84;5037344;28;20033;-71
2021/12/14 02:24:08;;;;;;;8.75;4.95;;;;;;;-1.30;97.51;101686.34;5039864;28;20135;-71
2021/12/14 02:26:39;;;;;;;8.15;4.78;;;;;;;-1.30;97.38;101691.72;5017149;28;20038;-71
2021/12/14 02:29:06;;;;;;;7.03;3.88;;;;;;;-1.31;97.37;101687.38;5046221;28;20043;-71
2021/12/14 02:31:35;;;;;;;7.57;4.28;;;;;;;-1.32;97.44;101688.38;5059177;28;20048;-71
2021/12/14 02:34:02;;;;;;;7.47;4.40;;;;;;;-1.34;97.39;101688.56;5048655;28;20040;-71
2021/12/14 02:36:39;;;;;;;7.57;4.93;;;;;;;-1.35;97.54;101683.34;5053996;28;20040;-71
2021/12/14 02:39:22;;;;;;;7.03;4.25;;;;;;;-1.37;97.43;101688.09;5056417;28;20526;-71
2021/12/14 02:41:51;;;;;;;8.27;4.38;;;;;;;-1.37;97.42;101683.53;5048529;28;20064;-71
2021/12/14 02:44:20;;;;;;;8.02;4.40;;;;;;;-1.38;97.37;101686.41;5056606;28;20036;-71
2021/12/14 02:46:52;;;;;;;7.38;4.10;;;;;;;-1.39;97.62;101690.09;5038522;28;20088;-71
2021/12/14 02:49:21;;;;;;;10.10;4.70;;;;;;;-1.39;97.54;101684.69;5059117;28;20090;-71
2021/12/14 02:51:50;;;;;;;8.27;4.63;;;;;;;-1.42;97.59;101674.28;5062778;28;20044;-71
2021/12/14 02:54:24;;;;;;;8.05;4.50;;;;;;;-1.42;97.62;101677.81;5037706;28;20549;-71
2021/12/14 02:56:54;;;;;;;7.00;4.32;;;;;;;-1.40;97.53;101678.47;5032060;28;20033;-71
2021/12/14 02:59:24;;;;;;;8.23;4.75;;;;;;;-1.38;97.74;101678.34;5058894;28;20032;-71
2021/12/14 03:01:52;;;;;;;8.48;4.40;;;;;;;-1.39;97.77;101677.50;5063717;28;20503;-71
2021/12/14 03:04:18;;;;;;;8.55;4.40;;;;;;;-1.40;97.59;101674.94;5042096;28;20044;-71
2021/12/14 03:06:52;;;;;;;7.28;4.75;;;;;;;-1.43;97.52;101664.53;5042398;28;20033;-71
2021/12/14 03:09:37;;;;;;;8.30;4.47;;;;;;;-1.43;97.56;101669.94;5061197;28;20044;-72
2021/12/14 03:12:09;;;;;;;7.90;4.18;;;;;;;-1.43;97.61;101662.69;5036905;28;20507;-71
2021/12/14 03:14:35;;;;;;;9.82;4.90;;;;;;;-1.42;97.46;101668.91;5057780;28;20582;-71
2021/12/14 03:17:02;;;;;;;8.32;4.68;;;;;;;-1.39;97.52;101666.72;5052979;28;20045;-71
2021/12/14 03:19:28;;;;;;;7.72;4.35;;;;;;;-1.40;97.57;101662.31;5023384;28;20075;-71
2021/12/14 03:21:53;;;;;;;8.25;4.72;;;;;;;-1.39;97.68;101666.72;5068461;28;20072;-71
2021/12/14 03:24:20;;;;;;;10.32;5.32;;;;;;;-1.37;97.63;101661.16;5065856;28;20052;-71
2021/12/14 03:26:48;;;;;;;7.38;4.22;;;;;;;-1.35;97.62;101661.81;5052229;28;20040;-71
2021/12/14 03:29:19;;;;;;;8.55;4.80;;;;;;;-1.36;97.73;101662.84;5060862;28;20047;-71
2021/12/14 03:31:47;;;;;;;9.32;5.43;;;;;;;-1.36;97.71;101662.84;5046905;28;20043;-71
2021/12/14 03:34:22;;;;;;;8.07;4.25;;;;;;;-1.37;97.61;101667.38;5043643;28;20075;-71
2021/12/14 03:36:52;;;;;;;9.00;4.70;;;;;;;-1.35;97.64;101664.50;5051883;28;20040;-71
2021/12/14 03:39:23;;;;;;;9.05;5.35;;;;;;;-1.36;97.80;101660.97;5030719;28;20596;-71
2021/12/14 03:41:53;;;;;;;8.35;4.57;;;;;;;-1.37;97.87;101666.53;5044234;28;20103;-71
2021/12/14 03:44:31;;;;;;;8.60;5.05;;;;;;;-1.40;97.71;101666.88;5032133;28;20041;-71
2021/12/14 03:47:12;;;;;;;8.60;4.93;;;;;;;-1.39;97.75;101663.16;5047365;28;20045;-71
2021/12/14 03:49:45;;;;;;;6.35;3.13;;;;;;;-1.41;97.84;101660.66;5046541;28;20040;-72
2021/12/14 03:52:14;;;;;;;7.57;3.42;;;;;;;-1.41;97.74;101660.66;5038259;28;20041;-71
2021/12/14 03:54:40;;;;;;;5.78;2.97;;;;;;;-1.39;97.77;101665.84;5044763;28;20484;-71
2021/12/14 03:57:06;;;;;;;5.80;2.22;;;;;;;-1.39;97.72;101660.47;5030279;28;20542;-71
2021/12/14 03:59:33;;;;;;;5.60;2.33;;;;;;;-1.39;97.73;101671.25;5029491;28;20068;-71
2021/12/14 04:02:02;;;;;;;5.75;2.90;;;;;;;-1.39;97.62;101657.78;5048319;28;20071;-71
2021/12/14 04:04:34;;;;;;;4.20;2.15;;;;;;;-1.39;97.52;101666.72;5039988;28;20041;-71
2021/12/14 04:07:01;;;;;;;2.28;0.93;;;;;;;-1.42;97.66;101658.97;5061881;28;20636;-73
2021/12/14 04:09:30;;;;;;;2.80;1.73;;;;;;;-1.42;97.45;101660.84;5030373;28;20098;-73
2021/12/14 04:11:57;;;;;;;4.18;2.40;;;;;;;-1.42;97.57;101650.91;5057791;28;20127;-72
2021/12/14 04:14:28;;;;;;;3.53;1.65;;;;;;;-1.41;97.61;101638.28;5065951;28;20045;-72
2021/12/14 04:16:55;;;;;;;4.00;1.95;;;;;;;-1.42;97.70;101625.84;5058419;28;20395;-73
2021/12/14 04:19:25;;;;;;;7.47;3.22;;;;;;;-1.43;97.52;101621.47;5037464;28;20080;-72
2021/12/14 04:22:03;;;;;;;7.63;3.13;;;;;;;-1.40;97.49;101632.72;5064668;28;20170;-72
2021/12/14 04:24:37;;;;;;;5.60;2.83;;;;;;;-1.39;97.38;101620.97;5034115;28;20059;-72
2021/12/14 04:27:06;;;;;;;7.00;3.50;;;;;;;-1.38;97.45;101617.25;5061173;28;20183;-72
2021/12/14 04:29:32;;;;;;;;;;;;;;;-1.37;97.63;101618.09;5055865;28;20075;-72
2021/12/14 04:32:02;;;;;;;4.75;2.05;;;;;;;-1.39;97.38;101622.78;5056260;28;19959;-72
2021/12/14 04:34:30;;;;;;;5.63;2.50;;;;;;;-1.38;97.45;101622.63;5044450;28;20503;-72
2021/12/14 04:36:56;;;;;;;6.70;3.10;;;;;;;-1.37;97.49;101620.78;5064385;28;20064;-72
2021/12/14 04:39:35;;;;;;;5.25;2.30;;;;;;;-1.39;97.43;101612.88;5051494;28;20106;-72
2021/12/14 04:53:24;;;;;;;5.68;2.55;;;;;;;-1.42;97.46;101613.22;5036354;28;20528;-72
2021/12/14 04:55:53;;;;;;;1.53;0.80;;;;;;;-1.45;97.14;101607.34;5056915;28;20072;-72
2021/12/14 04:58:35;;;;;;;5.72;2.60;;;;;;;-1.42;97.20;101602.44;5065962;28;20040;-72
2021/12/14 05:01:03;;;;;;;5.63;2.55;;;;;;;-1.42;97.19;101594.38;5064134;28;20495;-72
2021/12/14 05:03:35;;;;;;;6.28;3.08;;;;;;;-1.41;97.18;101593.34;5035987;28;20055;-72
2021/12/14 05:06:15;;;;;;;6.88;3.08;;;;;;;-1.40;97.15;101592.34;5036982;28;20037;-72
2021/12/14 05:11:16;;;;;;;6.43;2.85;;;;;;;-1.40;97.04;101583.41;5055628;28;20059;-72
2021/12/14 05:13:48;;;;;;;6.00;2.50;;;;;;;-1.38;96.92;101579.56;5034570;28;20029;-72
2021/12/14 05:16:24;;;;;;;5.18;2.35;;;;;;;-1.37;97.21;101583.09;5043295;28;20047;-72
2021/12/14 05:18:55;;;;;;;5.03;2.92;;;;;;;-1.36;97.14;101585.59;5053909;28;20479;-72
2021/12/14 05:21:34;;;;;;;5.13;2.50;;;;;;;-1.34;97.14;101574.66;5024469;28;20069;-73
2021/12/14 05:24:03;;;;;;;5.82;3.25;;;;;;;-1.33;97.27;101566.38;5023438;28;20044;-75
2021/12/14 05:26:41;;;;;;;8.65;3.55;;;;;;;-1.33;97.25;101560.16;5062559;28;20033;-75
2021/12/14 05:29:10;;;;;;;6.97;3.00;;;;;;;-1.32;97.06;101553.75;5044113;28;20040;-75
2021/12/14 05:31:48;;;;;;;8.57;3.65;;;;;;;-1.31;97.27;101552.75;5054596;28;20068;-77
2021/12/14 05:34:15;;;;;;;4.68;2.67;;;;;;;-1.29;96.99;101562.31;5048315;28;20044;-75
2021/12/14 05:36:42;;;;;;;7.65;3.63;;;;;;;-1.27;97.30;101562.13;5044205;28;20040;-75
2021/12/14 05:44:37;;;;;;;5.70;2.60;;;;;;;-1.28;97.08;101565.84;5052191;28;20034;-75
2021/12/14 05:47:10;;;;;;;7.10;2.88;;;;;;;-1.25;97.17;101569.00;5027572;28;20547;-76
2021/12/14 05:49:59;;;;;;;6.32;2.90;;;;;;;-1.22;97.20;101583.94;5049584;28;20047;-75
2021/12/14 05:52:27;;;;;;;5.93;2.95;;;;;;;-1.22;97.21;101567.78;5044599;28;20041;-75
2021/12/14 05:54:56;;;;;;;5.05;2.40;;;;;;;-1.24;97.04;101572.53;5061937;28;20123;-75
2021/12/14 05:57:26;;;;;;;7.22;3.65;;;;;;;-1.23;97.09;101566.13;5038877;28;20037;-75
2021/12/14 05:59:53;;;;;;;5.60;2.20;;;;;;;-1.24;97.16;101564.44;5066752;28;20041;-76
2021/12/14 06:02:21;;;;;;;6.53;3.03;;;;;;;-1.25;97.25;101563.63;5057195;28;20029;-75
2021/12/14 06:04:51;;;;;;;9.27;3.00;;;;;;;-1.24;97.11;101564.44;5059923;28;20090;-75
2021/12/14 06:07:18;;;;;;;6.93;3.05;;;;;;;-1.24;97.13;101570.66;5065214;28;20036;-75
2021/12/14 06:09:48;;;;;;;3.38;2.10;;;;;;;-1.26;97.22;101567.31;5037166;28;20144;-76
2021/12/14 06:12:28;;;;;;;6.28;3.60;;;;;;;-1.26;97.26;101572.72;5048268;28;20045;-75
2021/12/14 06:14:58;;;;;;;4.95;2.80;;;;;;;-1.24;97.12;101576.06;5061937;28;20097;-75
2021/12/14 06:17:31;;;;;;;4.38;2.30;;;;;;;-1.24;97.17;101575.22;5038729;28;20040;-75
2021/12/14 06:20:14;;;;;;;4.43;2.42;;;;;;;-1.25;97.13;101573.53;5021496;28;20036;-75
2021/12/14 06:22:42;;;;;;;9.75;2.88;;;;;;;-1.25;97.03;101571.69;5044361;28;20044;-75
2021/12/14 06:25:27;;;;;;;7.22;2.80;;;;;;;-1.23;97.15;101574.19;5065009;28;20392;-75
2021/12/14 06:27:57;;;;;;;6.35;3.08;;;;;;;-1.26;96.99;101578.09;5053878;28;20036;-75
2021/12/14 06:30:28;;;;;;;6.30;2.58;;;;;;;-1.27;96.89;101568.34;5063401;28;20060;-75
2021/12/14 06:33:15;;;;;;;6.65;3.22;;;;;;;-1.26;96.87;101570.03;5061506;28;20173;-75
2021/12/14 06:35:47;;;;;;;7.13;2.47;;;;;;;-1.26;96.92;101566.50;5049696;28;20044;-75
2021/12/14 06:41:02;;;;;;;5.75;2.45;;;;;;;-1.28;97.00;101557.75;5027359;28;20036;-75
2021/12/14 06:43:33;;;;;;;5.47;2.58;;;;;;;-1.29;96.87;101564.16;5051316;28;20084;-75
2021/12/14 06:46:03;;;;;;;3.92;1.90;;;;;;;-1.29;96.73;101573.06;5029675;28;20048;-75
2021/12/14 06:48:38;;;;;;;4.55;1.98;;;;;;;-1.25;96.85;101570.84;5039585;28;20028;-75
2021/12/14 06:51:20;;;;;;;4.05;1.88;;;;;;;-1.28;96.80;101560.44;5040138;28;20567;-75
2021/12/14 06:53:55;;;;;;;6.32;2.67;;;;;;;-1.27;96.68;101567.50;5065958;28;20047;-75
2021/12/14 06:56:38;;;;;;;4.07;2.10;;;;;;;-1.23;96.53;101574.19;5044110;28;20132;-75
2021/12/14 06:59:22;;;;;;;8.77;3.45;;;;;;;-1.21;96.66;101572.19;5043489;28;20037;-75
2021/12/14 07:02:08;;;;;;;4.72;2.35;;;;;;;-1.20;96.59;101581.94;5038810;28;20090;-75
2021/12/14 07:04:48;;;;;;;5.85;2.80;;;;;;;-1.23;96.53;101568.81;5060550;28;20051;-75
2021/12/14 07:07:18;;;;;;;5.15;2.42;;;;;;;-1.22;96.66;101573.19;5048104;28;20090;-75
2021/12/14 07:09:50;;;;;;;5.63;2.70;;;;;;;-1.24;96.58;101570.66;5036369;28;20591;-75
2021/12/14 07:12:19;;;;;;;5.47;2.85;;;;;;;-1.24;96.61;101580.59;5030673;28;20094;-75
2021/12/14 07:14:53;;;;;;;4.35;2.10;;;;;;;-1.23;96.32;101571.50;5060527;28;20076;-75
2021/12/14 07:17:26;;;;;;;3.25;1.73;;;;;;;-1.23;96.53;101571.50;5055956;28;20493;-75
2021/12/14 07:19:53;;;;;;;4.90;2.30;;;;;;;-1.22;96.39;101565.09;5067052;28;20033;-75
2021/12/14 07:22:27;;;;;;;2.38;1.60;;;;;;;-1.24;96.41;101570.66;5057338;28;20036;-75
2021/12/14 07:25:05;;;;;;;4.57;2.42;;;;;;;-1.25;96.20;101565.47;5059504;28;20037;-75
2021/12/14 07:27:32;;;;;;;5.32;1.90;;;;;;;-1.21;96.18;101564.13;5049138;28;20036;-75
2021/12/14 07:30:20;;;;;;;2.45;1.65;;;;;;;-1.21;96.17;101564.13;5036352;28;20424;-75
2021/12/14 07:33:05;;;;;;;4.75;2.00;;;;;;;-1.22;96.17;101548.94;5060338;28;20411;-75
2021/12/14 07:35:46;;;;;;;5.22;2.10;;;;;;;-1.22;96.32;101546.25;5066659;28;20128;-75
2021/12/14 07:38:15;;;;;;;4.45;2.33;;;;;;;-1.21;96.43;101547.97;5040589;28;20044;-75
2021/12/14 07:40:44;;;;;;;1.63;1.30;;;;;;;-1.22;96.44;101548.94;5060847;28;20048;-75
2021/12/14 07:43:20;;;;;;;6.32;2.72;;;;;;;-1.22;96.49;101543.56;5064240;28;20339;-75
2021/12/14 07:45:49;;;;;;;5.57;3.08;;;;;;;-1.19;96.57;101537.84;5052580;28;20047;-75
2021/12/14 07:48:15;;;;;;;6.23;3.47;;;;;;;-1.19;96.59;101529.75;5063860;28;20037;-75
2021/12/14 07:50:48;;;;;;;5.07;2.15;;;;;;;-1.17;96.41;101527.72;5059823;28;20293;-76
2021/12/14 07:53:14;;;;;;;7.85;3.35;;;;;;;-1.13;96.43;101522.78;5033020;28;20171;-76
2021/12/14 07:55:43;;;;;;;5.93;3.08;;;;;;;-1.13;96.51;101523.63;5046257;28;20041;-76
2021/12/14 07:58:10;;;;;;;;;;;;;;;-1.12;96.37;101519.06;5035897;28;20115;-76
2021/12/14 08:00:40;;;;;;;3.38;2.20;;;;;;;-1.11;96.64;101513.50;5022827;28;19921;-75
2021/12/14 08:03:07;;;;;;;4.70;2.85;;;;;;;-1.13;96.39;101526.31;5031255;28;20049;-76
2021/12/14 08:05:36;;;;;;;8.88;3.92;;;;;;;-1.11;96.48;101510.81;5048963;28;20037;-75
2021/12/14 08:08:17;;;;;;;7.00;3.58;;;;;;;-1.09;96.43;101516.84;5054523;28;20452;-75
2021/12/14 08:11:08;;;;;;;7.90;3.83;;;;;;;-1.09;96.46;101530.31;5042306;28;20053;-76
2021/12/14 08:13:43;;;;;;;5.72;3.38;;;;;;;-1.09;96.60;101518.72;5065564;28;20043;-76
2021/12/14 08:16:09;;;;;;;4.20;2.45;;;;;;;-1.10;96.44;101525.13;5054258;28;20040;-75
2021/12/14 08:18:36;;;;;;;7.38;3.42;;;;;;;-1.10;96.55;101527.81;5049810;28;20044;-76
2021/12/14 08:21:12;;;;;;;5.93;3.53;;;;;;;-1.10;96.45;101517.88;5056622;28;20040;-76
2021/12/14 08:23:39;;;;;;;11.05;3.83;;;;;;;-1.09;96.39;101524.94;5066536;28;20085;-76
2021/12/14 08:26:17;;;;;;;10.18;3.60;;;;;;;-1.08;96.33;101521.22;5054600;28;20036;-76
2021/12/14 08:28:49;;;;;;;6.72;3.65;;;;;;;-1.07;96.10;101517.50;5042384;28;20033;-76
2021/12/14 08:31:15;;;;;;;2.97;1.35;;;;;;;-1.05;96.13;101518.16;5063086;28;20048;-75
2021/12/14 08:33:41;;;;;;;5.22;2.83;;;;;;;-1.05;96.07;101520.84;5053180;28;20633;-75
2021/12/14 08:36:10;;;;;;;5.82;3.17;;;;;;;-1.04;96.16;101508.22;5064215;28;20140;-75
2021/12/14 08:38:36;;;;;;;13.75;4.30;;;;;;;-1.02;95.99;101525.06;5040929;28;20165;-75
2021/12/14 08:41:13;;;;;;;3.70;1.48;;;;;;;-1.01;95.94;101508.72;5057503;28;20075;-75
2021/12/14 08:43:47;;;;;;;4.00;2.40;;;;;;;-1.00;95.97;101507.69;5066289;28;20070;-75
2021/12/14 08:46:20;;;;;;;4.15;2.15;;;;;;;-0.99;95.89;101500.44;5054330;28;20529;-75
2021/12/14 08:48:49;;;;;;;5.07;2.45;;;;;;;-0.99;96.08;101503.97;5061499;28;20391;-75
2021/12/14 08:51:31;;;;;;;6.13;3.33;;;;;;;-0.99;96.05;101493.19;5066350;28;20506;-75
2021/12/14 08:54:03;;;;;;;3.58;2.10;;;;;;;-1.01;96.10;101494.41;5055289;28;20105;-75
2021/12/14 08:56:32;;;;;;;6.40;2.63;;;;;;;-1.02;95.98;101493.56;5064575;28;20049;-75
2021/12/14 08:58:58;;;;;;;8.25;3.72;;;;;;;-1.00;96.07;101491.53;5054678;28;20044;-75
2021/12/14 09:01:27;;;;;;;2.03;1.23;;;;;;;-0.99;96.02;101486.97;5056290;28;20526;-75
2021/12/14 09:03:57;;;;;;;8.00;2.85;;;;;;;-0.99;96.06;101493.19;5051484;28;20492;-75
2021/12/14 09:06:29;;;;;;;6.18;2.90;;;;;;;-0.98;95.98;101489.47;5059936;28;20089;-75
2021/12/14 09:08:57;;;;;;;5.63;2.20;;;;;;;-0.97;96.06;101480.38;5060050;28;20185;-75
2021/12/14 09:11:25;;;;;;;4.88;2.72;;;;;;;-0.96;95.97;101484.72;5061127;28;20415;-75
2021/12/14 09:13:52;;;;;;;4.63;2.17;;;;;;;-0.94;95.86;101484.56;5069130;28;20036;-75
2021/12/14 09:16:24;;;;;;;8.20;2.70;;;;;;;-0.91;95.94;101476.94;5041129;28;20476;-75
2021/12/14 09:18:55;;;;;;;5.68;2.83;;;;;;;-0.91;95.91;101462.63;5062011;28;20041;-75
2021/12/14 09:21:28;;;;;;;6.65;2.80;;;;;;;-0.89;95.85;101474.03;5067616;28;20048;-75
2021/12/14 09:23:59;;;;;;;4.57;2.67;;;;;;;-0.87;95.54;101473.84;5054886;28;20178;-75
2021/12/14 09:26:27;;;;;;;6.70;3.30;;;;;;;-0.85;95.76;101463.75;5064436;28;20071;-75
2021/12/14 09:28:53;;;;;;;7.97;3.38;;;;;;;-0.84;95.78;101465.44;5029348;28;20632;-75
2021/12/14 09:31:27;;;;;;;4.53;2.75;;;;;;;-0.84;95.51;101471.66;5058216;28;20041;-75
2021/12/14 09:33:56;;;;;;;4.88;2.08;;;;;;;-0.82;95.30;101463.38;5069271;28;20083;-75
2021/12/14 09:36:22;;;;;;;7.00;3.83;;;;;;;-0.82;95.38;101460.69;5058688;28;20044;-75
2021/12/14 09:38:54;;;;;;;7.20;3.42;;;;;;;-0.82;95.20;101458.00;5060762;28;20128;-75
2021/12/14 09:41:23;;;;;;;5.53;3.00;;;;;;;-0.83;95.21;101459.00;5049289;28;20419;-75
2021/12/14 09:43:49;;;;;;;7.32;3.72;;;;;;;-0.83;95.48;101453.63;5055745;28;20051;-74
2021/12/14 09:46:17;;;;;;;7.10;3.15;;;;;;;-0.84;95.17;101449.25;5065601;28;20076;-76
2021/12/14 09:48:51;;;;;;;8.45;3.00;;;;;;;-0.84;95.03;101443.88;5060756;28;20601;-76
2021/12/14 09:51:52;;;;;;;6.15;2.60;;;;;;;-0.81;95.10;101446.19;5056511;28;20569;-76
2021/12/14 09:54:20;;;;;;;8.23;3.30;;;;;;;-0.83;95.37;101448.25;5047205;28;20136;-76
2021/12/14 09:56:50;;;;;;;5.72;3.45;;;;;;;-0.84;95.24;101442.00;5054766;28;20042;-76
2021/12/14 09:59:16;;;;;;;4.78;2.47;;;;;;;-0.85;95.18;101436.81;5042166;28;20517;-76
2021/12/14 10:01:51;;;;;;;6.60;2.40;;;;;;;-0.86;95.25;101437.84;5055203;28;20128;-76
2021/12/14 10:04:24;;;;;;;4.85;3.53;;;;;;;-0.86;95.05;101445.91;5063935;28;20029;-75
2021/12/14 10:06:50;;;;;;;5.47;2.95;;;;;;;-0.86;95.01;101440.53;5062507;28;20438;-73
2021/12/14 10:09:21;;;;;;;3.28;1.70;;;;;;;-0.85;94.85;101436.81;5056188;28;20048;-73
2021/12/14 10:14:23;;;;;;;3.88;1.73;;;;;;;-0.85;94.92;101434.13;5058778;28;20044;-74
2021/12/14 10:16:50;;;;;;;5.65;2.47;;;;;;;-0.85;94.94;101423.34;5060029;28;20060;-74
2021/12/14 10:19:19;;;;;;;3.97;1.88;;;;;;;-0.87;94.99;101426.19;5054268;28;20037;-74
2021/12/14 10:21:47;;;;;;;;;;;;;;;-0.88;94.91;101424.53;5062561;28;20048;-74
2021/12/14 10:24:13;;;;;;;8.68;4.07;;;;;;;-0.89;94.83;101416.63;5048123;28;19920;-73
2021/12/14 10:26:44;;;;;;;3.25;1.67;;;;;;;-0.94;94.83;101415.34;5056379;28;20127;-73
2021/12/14 10:29:10;;;;;;;4.88;2.45;;;;;;;-0.96;94.68;101406.63;5060410;28;20036;-74
2021/12/14 10:31:41;;;;;;;5.45;2.40;;;;;;;-0.94;94.57;101409.13;5071271;28;20047;-73
2021/12/14 10:34:14;;;;;;;7.03;3.75;;;;;;;-0.94;94.60;101404.56;5051605;28;20037;-74
2021/12/14 10:36:45;;;;;;;3.55;1.58;;;;;;;-0.94;94.26;101403.72;5059424;28;20486;-73
2021/12/14 10:39:25;;;;;;;1.38;1.13;;;;;;;-0.93;94.64;101400.00;5063705;28;20048;-74
2021/12/14 10:44:43;;;;;;;4.45;2.15;;;;;;;-0.93;94.88;101392.75;5055648;28;20086;-74
2021/12/14 10:47:12;;;;;;;5.45;3.17;;;;;;;-0.94;94.87;101393.78;5071403;28;20478;-72
2021/12/14 10:49:38;;;;;;;;;;;;;;;-0.96;94.73;101390.44;5045163;28;20038;-72
2021/12/14 10:52:14;;;;;;;4.35;2.40;;;;;;;-0.96;94.64;101387.75;5024459;28;19920;-72
2021/12/14 10:54:44;;;;;;;3.60;1.63;;;;;;;-0.94;94.73;101383.00;5040815;28;20044;-72
2021/12/14 10:57:13;;;;;;;7.57;4.55;;;;;;;-0.95;94.89;101375.13;5020207;28;20037;-72
2021/12/14 10:59:42;;;;;;;7.40;3.03;;;;;;;-0.98;94.59;101379.03;5050576;28;20531;-73
2021/12/14 11:02:09;;;;;;;1.42;1.17;;;;;;;-0.96;94.83;101365.38;5042226;28;20520;-72
2021/12/14 11:04:53;;;;;;;6.00;2.78;;;;;;;-0.95;94.76;101349.03;5035912;28;20103;-73
2021/12/14 11:07:37;;;;;;;7.43;4.00;;;;;;;-0.97;94.55;101361.84;5040422;28;20037;-72
2021/12/14 11:10:12;;;;;;;7.65;3.65;;;;;;;-0.95;94.78;101357.09;5036603;28;20555;-72
2021/12/14 11:12:41;;;;;;;4.60;2.47;;;;;;;-0.97;94.48;101356.47;5028110;28;20045;-73
2021/12/14 11:15:16;;;;;;;7.07;3.97;;;;;;;-0.98;94.49;101356.66;5049227;28;20063;-73
2021/12/14 11:20:32;;;;;;;2.60;1.98;;;;;;;-0.99;94.35;101347.72;5034959;28;20483;-72
2021/12/14 11:23:15;;;;;;;6.35;2.38;;;;;;;-0.98;94.39;101351.25;5035689;28;20037;-72
2021/12/14 11:25:44;;;;;;;2.88;1.70;;;;;;;-0.98;94.38;101351.25;5022924;28;20040;-72
2021/12/14 11:28:14;;;;;;;7.78;3.28;;;;;;;-0.98;94.13;101338.63;5055400;28;20526;-72
2021/12/14 11:30:51;;;;;;;4.28;2.28;;;;;;;-0.97;94.35;101339.47;5051955;28;20036;-72
2021/12/14 11:33:26;;;;;;;7.30;4.03;;;;;;;-0.99;94.18;101326.19;5027840;28;20045;-73
2021/12/14 11:36:06;;;;;;;4.55;2.67;;;;;;;-0.99;94.56;101328.03;5043639;28;20122;-72
2021/12/14 11:38:40;;;;;;;;;;;;;;;-0.99;94.46;101328.88;5045201;28;20131;-72
2021/12/14 11:41:25;;;;;;;4.20;2.25;;;;;;;-0.99;94.38;101322.66;5053429;28;19963;-74
2021/12/14 11:44:00;;;;;;;5.40;2.70;;;;;;;-0.98;94.32;101332.41;5039400;28;20344;-72
2021/12/14 11:46:29;;;;;;;2.65;1.25;;;;;;;-0.97;94.35;101321.44;5043654;28;20052;-73
2021/12/14 11:48:58;;;;;;;0.98;0.95;;;;;;;-0.97;94.29;101313.34;5053028;28;20466;-73
2021/12/14 11:51:25;;;;;;;8.63;2.77;;;;;;;-0.95;94.49;101315.84;5036225;28;20041;-73
2021/12/14 11:53:53;;;;;;;5.93;1.85;;;;;;;-0.95;94.22;101314.00;5044753;28;20300;-72
2021/12/14 11:56:22;;;;;;;7.00;2.47;;;;;;;-0.99;94.35;101304.63;5039690;28;20076;-72
2021/12/14 11:58:55;;;;;;;1.40;0.90;;;;;;;-0.99;94.45;101298.41;5033313;28;20536;-72
2021/12/14 12:01:25;;;;;;;5.75;3.25;;;;;;;-1.02;94.14;101294.25;5049774;28;20040;-73
2021/12/14 12:04:06;;;;;;;4.22;2.40;;;;;;;-1.01;93.94;101293.22;5047360;28;20041;-72
2021/12/14 12:06:45;;;;;;;1.80;1.65;;;;;;;-1.01;93.94;101284.31;5048219;28;20037;-75
2021/12/14 12:09:28;;;;;;;3.58;2.22;;;;;;;-1.01;94.04;101287.84;5051492;28;20040;-73
2021/12/14 12:12:02;;;;;;;6.72;3.13;;;;;;;-1.02;93.78;101278.09;5040999;28;20050;-71
2021/12/14 12:14:33;;;;;;;6.82;2.63;;;;;;;-1.03;93.96;101276.41;5055152;28;20041;-72
2021/12/14 12:17:37;;;;;;;5.07;2.33;;;;;;;-1.05;94.01;101283.81;5044504;28;20060;-74
2021/12/14 12:20:24;;;;;;;7.43;3.80;;;;;;;-1.06;93.75;101271.38;5031724;28;20067;-73
2021/12/14 12:22:58;;;;;;;1.10;0.77;;;;;;;-1.05;93.70;101272.22;5061726;28;20036;-73
2021/12/14 12:25:29;;;;;;;7.00;4.22;;;;;;;-1.04;93.80;101263.09;5067348;28;20243;-73
2021/12/14 12:27:54;;;;;;;8.50;4.03;;;;;;;-1.03;93.70;101270.19;5057463;28;20036;-73